sensor_id;sensor_type;location;lat;lon;timestamp;temperature;humidity
20422;DHT22;10370;53.102;18.034;2023-04-03T00:02:26;0.30;99.90
20422;DHT22;10370;53.102;18.034;2023-04-03T00:07:54;0.30;99.90
20422;DHT22;10370;53.102;18.034;2023-04-03T00:13:26;0.20;99.90
20422;DHT22;10370;53.102;18.034;2023-04-03T00:18:51;0.30;99.90
20422;DHT22;10370;53.102;18.034;2023-04-03T00:24:19;0.40;99.90
20422;DHT22;10370;53.102;18.034;2023-04-03T00:30:13;0.40;99.90
20422;DHT22;10370;53.102;18.034;2023-04-03T00:35:39;0.50;99.90
20422;DHT22;10370;53.102;18.034;2023-04-03T00:41:02;0.50;99.90
20422;DHT22;10370;53.102;18.034;2023-04-03T00:46:25;0.60;99.90
20422;DHT22;10370;53.102;18.034;2023-04-03T00:51:48;0.60;99.90
20422;DHT22;10370;53.102;18.034;2023-04-03T00:57:12;0.60;99.90
20422;DHT22;10370;53.102;18.034;2023-04-03T01:02:40;0.60;99.90
20422;DHT22;10370;53.102;18.034;2023-04-03T01:08:05;0.50;99.90
20422;DHT22;10370;53.102;18.034;2023-04-03T01:13:33;0.50;99.90
20422;DHT22;10370;53.102;18.034;2023-04-03T01:18:54;0.50;99.90
20422;DHT22;10370;53.102;18.034;2023-04-03T01:24:41;0.40;99.90
20422;DHT22;10370;53.102;18.034;2023-04-03T01:30:06;0.30;99.90
20422;DHT22;10370;53.102;18.034;2023-04-03T01:35:33;0.20;99.90
20422;DHT22;10370;53.102;18.034;2023-04-03T01:40:58;0.20;99.90
20422;DHT22;10370;53.102;18.034;2023-04-03T01:46:23;0.10;99.90
20422;DHT22;10370;53.102;18.034;2023-04-03T01:52:25;0.10;99.90
20422;DHT22;10370;53.102;18.034;2023-04-03T02:04:33;0.00;99.90
20422;DHT22;10370;53.102;18.034;2023-04-03T02:09:54;-0.10;99.90
20422;DHT22;10370;53.102;18.034;2023-04-03T02:15:25;-0.10;99.90
20422;DHT22;10370;53.102;18.034;2023-04-03T02:20:49;0.00;99.90
20422;DHT22;10370;53.102;18.034;2023-04-03T02:26:15;-0.10;99.90
20422;DHT22;10370;53.102;18.034;2023-04-03T02:32:03;-0.10;99.90
20422;DHT22;10370;53.102;18.034;2023-04-03T02:37:36;-0.20;99.90
20422;DHT22;10370;53.102;18.034;2023-04-03T02:43:01;-0.20;99.90
20422;DHT22;10370;53.102;18.034;2023-04-03T02:48:29;-0.20;99.90
20422;DHT22;10370;53.102;18.034;2023-04-03T02:54:05;-0.20;99.90
20422;DHT22;10370;53.102;18.034;2023-04-03T02:59:41;-0.30;99.90
20422;DHT22;10370;53.102;18.034;2023-04-03T03:05:06;-0.20;99.90
20422;DHT22;10370;53.102;18.034;2023-04-03T03:10:32;-0.30;99.90
20422;DHT22;10370;53.102;18.034;2023-04-03T03:15:57;-0.40;99.90
20422;DHT22;10370;53.102;18.034;2023-04-03T03:21:22;-0.50;99.90
20422;DHT22;10370;53.102;18.034;2023-04-03T03:26:51;-0.50;99.90
20422;DHT22;10370;53.102;18.034;2023-04-03T03:32:19;-0.60;99.90
20422;DHT22;10370;53.102;18.034;2023-04-03T03:38:18;-0.60;99.90
20422;DHT22;10370;53.102;18.034;2023-04-03T03:44:10;-0.70;99.90
20422;DHT22;10370;53.102;18.034;2023-04-03T03:49:37;-0.70;99.90
20422;DHT22;10370;53.102;18.034;2023-04-03T03:55:26;-0.70;99.90
20422;DHT22;10370;53.102;18.034;2023-04-03T04:01:00;-0.70;99.90
20422;DHT22;10370;53.102;18.034;2023-04-03T04:06:26;-0.80;99.90
20422;DHT22;10370;53.102;18.034;2023-04-03T04:12:26;-0.70;99.90
20422;DHT22;10370;53.102;18.034;2023-04-03T04:17:54;-0.70;99.90
20422;DHT22;10370;53.102;18.034;2023-04-03T04:23:19;-0.70;99.90
20422;DHT22;10370;53.102;18.034;2023-04-03T04:29:02;-0.70;99.90
20422;DHT22;10370;53.102;18.034;2023-04-03T04:34:27;-0.70;99.90
20422;DHT22;10370;53.102;18.034;2023-04-03T04:39:52;-0.60;99.90
20422;DHT22;10370;53.102;18.034;2023-04-03T04:45:16;0.00;99.90
20422;DHT22;10370;53.102;18.034;2023-04-03T04:56:56;0.70;99.90
20422;DHT22;10370;53.102;18.034;2023-04-03T05:02:31;1.30;99.90
20422;DHT22;10370;53.102;18.034;2023-04-03T05:08:01;1.20;99.90
20422;DHT22;10370;53.102;18.034;2023-04-03T05:13:25;4.30;99.90
20422;DHT22;10370;53.102;18.034;2023-04-03T05:18:48;6.30;99.90
20422;DHT22;10370;53.102;18.034;2023-04-03T05:24:10;6.90;99.90
20422;DHT22;10370;53.102;18.034;2023-04-03T05:29:34;6.90;99.90
20422;DHT22;10370;53.102;18.034;2023-04-03T05:34:57;4.80;99.90
20422;DHT22;10370;53.102;18.034;2023-04-03T05:40:20;3.60;99.90
20422;DHT22;10370;53.102;18.034;2023-04-03T05:51:07;2.10;99.90
20422;DHT22;10370;53.102;18.034;2023-04-03T05:56:30;1.60;99.90
20422;DHT22;10370;53.102;18.034;2023-04-03T06:01:51;1.50;99.90
20422;DHT22;10370;53.102;18.034;2023-04-03T06:07:15;1.60;99.90
20422;DHT22;10370;53.102;18.034;2023-04-03T06:12:44;1.70;99.90
20422;DHT22;10370;53.102;18.034;2023-04-03T06:18:10;1.90;99.90
20422;DHT22;10370;53.102;18.034;2023-04-03T06:23:34;2.40;99.90
20422;DHT22;10370;53.102;18.034;2023-04-03T06:29:04;2.60;99.90
20422;DHT22;10370;53.102;18.034;2023-04-03T06:34:30;2.80;99.90
20422;DHT22;10370;53.102;18.034;2023-04-03T06:39:52;2.80;99.90
20422;DHT22;10370;53.102;18.034;2023-04-03T06:45:18;2.60;99.90
20422;DHT22;10370;53.102;18.034;2023-04-03T06:50:51;2.50;99.90
20422;DHT22;10370;53.102;18.034;2023-04-03T06:56:14;2.50;99.90
20422;DHT22;10370;53.102;18.034;2023-04-03T07:01:38;2.60;99.90
20422;DHT22;10370;53.102;18.034;2023-04-03T07:07:09;2.60;99.90
20422;DHT22;10370;53.102;18.034;2023-04-03T07:12:34;2.50;99.90
20422;DHT22;10370;53.102;18.034;2023-04-03T07:18:11;2.50;99.90
20422;DHT22;10370;53.102;18.034;2023-04-03T07:23:34;2.40;99.90
20422;DHT22;10370;53.102;18.034;2023-04-03T07:29:00;2.50;99.90
20422;DHT22;10370;53.102;18.034;2023-04-03T07:34:25;2.90;99.90
20422;DHT22;10370;53.102;18.034;2023-04-03T07:39:51;2.90;99.90
20422;DHT22;10370;53.102;18.034;2023-04-03T07:45:17;2.70;99.90
20422;DHT22;10370;53.102;18.034;2023-04-03T07:50:40;2.80;99.90
20422;DHT22;10370;53.102;18.034;2023-04-03T07:56:01;3.00;99.90
20422;DHT22;10370;53.102;18.034;2023-04-03T08:01:26;3.40;99.90
20422;DHT22;10370;53.102;18.034;2023-04-03T08:06:57;3.10;99.90
20422;DHT22;10370;53.102;18.034;2023-04-03T08:12:23;3.00;99.90
20422;DHT22;10370;53.102;18.034;2023-04-03T08:18:02;3.00;99.90
20422;DHT22;10370;53.102;18.034;2023-04-03T08:23:24;3.20;99.90
20422;DHT22;10370;53.102;18.034;2023-04-03T08:28:48;3.20;99.90
20422;DHT22;10370;53.102;18.034;2023-04-03T08:34:13;3.60;99.90
20422;DHT22;10370;53.102;18.034;2023-04-03T08:39:37;3.70;99.90
20422;DHT22;10370;53.102;18.034;2023-04-03T08:50:38;3.70;99.90
20422;DHT22;10370;53.102;18.034;2023-04-03T08:56:02;3.80;99.90
20422;DHT22;10370;53.102;18.034;2023-04-03T09:06:59;3.50;99.90
20422;DHT22;10370;53.102;18.034;2023-04-03T09:12:32;3.40;99.90
20422;DHT22;10370;53.102;18.034;2023-04-03T09:18:21;3.60;99.90
20422;DHT22;10370;53.102;18.034;2023-04-03T09:24:01;3.50;99.90
20422;DHT22;10370;53.102;18.034;2023-04-03T09:29:35;3.80;99.90
20422;DHT22;10370;53.102;18.034;2023-04-03T09:46:33;3.80;99.90
20422;DHT22;10370;53.102;18.034;2023-04-03T09:51:57;3.70;99.90
20422;DHT22;10370;53.102;18.034;2023-04-03T09:57:20;4.00;99.90
20422;DHT22;10370;53.102;18.034;2023-04-03T10:02:44;4.10;99.90
20422;DHT22;10370;53.102;18.034;2023-04-03T10:13:57;4.40;99.90
20422;DHT22;10370;53.102;18.034;2023-04-03T10:37:16;4.40;99.90
20422;DHT22;10370;53.102;18.034;2023-04-03T10:49:01;4.60;99.90
20422;DHT22;10370;53.102;18.034;2023-04-03T10:54:38;4.80;99.90
20422;DHT22;10370;53.102;18.034;2023-04-03T11:00:23;4.80;99.90
20422;DHT22;10370;53.102;18.034;2023-04-03T11:05:51;4.90;99.90
20422;DHT22;10370;53.102;18.034;2023-04-03T11:11:22;5.00;99.90
20422;DHT22;10370;53.102;18.034;2023-04-03T11:17:01;5.20;99.90
20422;DHT22;10370;53.102;18.034;2023-04-03T11:22:35;4.90;99.90
20422;DHT22;10370;53.102;18.034;2023-04-03T11:28:13;5.20;99.90
20422;DHT22;10370;53.102;18.034;2023-04-03T11:39:26;5.00;99.90
20422;DHT22;10370;53.102;18.034;2023-04-03T11:44:51;4.70;99.90
20422;DHT22;10370;53.102;18.034;2023-04-03T11:50:42;4.90;99.90
20422;DHT22;10370;53.102;18.034;2023-04-03T12:01:56;5.00;99.90
20422;DHT22;10370;53.102;18.034;2023-04-03T12:07:21;5.20;99.90
20422;DHT22;10370;53.102;18.034;2023-04-03T12:12:56;5.70;99.90
20422;DHT22;10370;53.102;18.034;2023-04-03T12:29:37;5.30;99.90
20422;DHT22;10370;53.102;18.034;2023-04-03T12:35:28;5.30;99.90
20422;DHT22;10370;53.102;18.034;2023-04-03T12:46:53;5.30;99.90
20422;DHT22;10370;53.102;18.034;2023-04-03T12:57:51;5.60;99.90
20422;DHT22;10370;53.102;18.034;2023-04-03T13:03:25;5.30;99.90
20422;DHT22;10370;53.102;18.034;2023-04-03T13:08:56;5.30;99.90
20422;DHT22;10370;53.102;18.034;2023-04-03T13:14:28;5.10;99.90
20422;DHT22;10370;53.102;18.034;2023-04-03T13:20:13;5.00;99.90
20422;DHT22;10370;53.102;18.034;2023-04-03T13:25:41;5.20;99.90
20422;DHT22;10370;53.102;18.034;2023-04-03T13:31:26;5.70;99.90
20422;DHT22;10370;53.102;18.034;2023-04-03T13:36:59;5.50;99.60
20422;DHT22;10370;53.102;18.034;2023-04-03T13:42:28;5.70;98.50
20422;DHT22;10370;53.102;18.034;2023-04-03T13:48:28;5.70;98.70
20422;DHT22;10370;53.102;18.034;2023-04-03T13:54:20;5.60;98.50
20422;DHT22;10370;53.102;18.034;2023-04-03T13:59:44;5.50;99.60
20422;DHT22;10370;53.102;18.034;2023-04-03T14:05:12;5.20;98.90
20422;DHT22;10370;53.102;18.034;2023-04-03T14:10:43;5.20;99.80
20422;DHT22;10370;53.102;18.034;2023-04-03T14:16:15;5.70;99.90
20422;DHT22;10370;53.102;18.034;2023-04-03T14:21:46;5.30;99.40
20422;DHT22;10370;53.102;18.034;2023-04-03T14:27:36;5.20;99.90
20422;DHT22;10370;53.102;18.034;2023-04-03T14:33:02;5.00;99.90
20422;DHT22;10370;53.102;18.034;2023-04-03T14:38:31;5.30;99.90
20422;DHT22;10370;53.102;18.034;2023-04-03T14:44:03;5.30;99.90
20422;DHT22;10370;53.102;18.034;2023-04-03T14:49:32;5.20;99.90
20422;DHT22;10370;53.102;18.034;2023-04-03T14:54:57;5.00;99.90
20422;DHT22;10370;53.102;18.034;2023-04-03T15:00:37;4.90;99.90
20422;DHT22;10370;53.102;18.034;2023-04-03T15:06:03;4.70;99.90
20422;DHT22;10370;53.102;18.034;2023-04-03T15:11:38;4.60;99.90
20422;DHT22;10370;53.102;18.034;2023-04-03T15:17:23;4.60;99.90
20422;DHT22;10370;53.102;18.034;2023-04-03T15:23:00;4.70;99.90
20422;DHT22;10370;53.102;18.034;2023-04-03T15:28:37;5.10;99.90
20422;DHT22;10370;53.102;18.034;2023-04-03T15:34:16;5.00;99.90
20422;DHT22;10370;53.102;18.034;2023-04-03T15:39:46;4.70;99.90
20422;DHT22;10370;53.102;18.034;2023-04-03T15:45:14;4.50;99.90
20422;DHT22;10370;53.102;18.034;2023-04-03T15:50:37;4.40;99.90
20422;DHT22;10370;53.102;18.034;2023-04-03T15:56:03;4.40;99.90
20422;DHT22;10370;53.102;18.034;2023-04-03T16:01:29;4.30;99.90
20422;DHT22;10370;53.102;18.034;2023-04-03T16:07:28;4.40;99.90
20422;DHT22;10370;53.102;18.034;2023-04-03T16:13:45;4.30;99.90
20422;DHT22;10370;53.102;18.034;2023-04-03T16:19:08;4.00;99.90
20422;DHT22;10370;53.102;18.034;2023-04-03T16:24:34;3.90;99.90
20422;DHT22;10370;53.102;18.034;2023-04-03T16:30:20;3.90;99.90
20422;DHT22;10370;53.102;18.034;2023-04-03T16:35:44;3.90;99.90
20422;DHT22;10370;53.102;18.034;2023-04-03T16:41:27;3.80;99.90
20422;DHT22;10370;53.102;18.034;2023-04-03T16:46:55;3.70;99.90
20422;DHT22;10370;53.102;18.034;2023-04-03T16:52:20;3.60;99.90
20422;DHT22;10370;53.102;18.034;2023-04-03T16:57:51;3.60;99.90
20422;DHT22;10370;53.102;18.034;2023-04-03T17:03:18;3.60;99.90
20422;DHT22;10370;53.102;18.034;2023-04-03T17:09:03;3.40;99.90
20422;DHT22;10370;53.102;18.034;2023-04-03T17:14:28;3.30;99.90
20422;DHT22;10370;53.102;18.034;2023-04-03T17:19:56;3.10;99.90
20422;DHT22;10370;53.102;18.034;2023-04-03T17:25:17;3.10;99.90
20422;DHT22;10370;53.102;18.034;2023-04-03T17:30:42;3.00;99.90
20422;DHT22;10370;53.102;18.034;2023-04-03T17:36:22;2.90;99.90
20422;DHT22;10370;53.102;18.034;2023-04-03T17:41:44;2.90;99.90
20422;DHT22;10370;53.102;18.034;2023-04-03T17:47:05;2.80;99.90
20422;DHT22;10370;53.102;18.034;2023-04-03T17:52:50;2.70;99.90
20422;DHT22;10370;53.102;18.034;2023-04-03T17:58:11;2.70;99.90
20422;DHT22;10370;53.102;18.034;2023-04-03T18:10:05;2.50;99.90
20422;DHT22;10370;53.102;18.034;2023-04-03T18:15:40;2.40;99.90
20422;DHT22;10370;53.102;18.034;2023-04-03T18:21:13;2.20;99.90
20422;DHT22;10370;53.102;18.034;2023-04-03T18:26:38;2.10;99.90
20422;DHT22;10370;53.102;18.034;2023-04-03T18:32:06;1.90;99.90
20422;DHT22;10370;53.102;18.034;2023-04-03T18:37:32;1.90;99.90
20422;DHT22;10370;53.102;18.034;2023-04-03T18:42:55;1.70;99.90
20422;DHT22;10370;53.102;18.034;2023-04-03T18:54:12;1.60;99.90
20422;DHT22;10370;53.102;18.034;2023-04-03T18:59:47;1.60;99.90
20422;DHT22;10370;53.102;18.034;2023-04-03T19:05:17;1.70;99.90
20422;DHT22;10370;53.102;18.034;2023-04-03T19:10:42;1.70;99.90
20422;DHT22;10370;53.102;18.034;2023-04-03T19:16:46;1.80;99.90
20422;DHT22;10370;53.102;18.034;2023-04-03T19:22:14;1.80;99.90
20422;DHT22;10370;53.102;18.034;2023-04-03T19:27:38;1.80;99.90
20422;DHT22;10370;53.102;18.034;2023-04-03T19:32:59;1.90;99.90
20422;DHT22;10370;53.102;18.034;2023-04-03T19:38:25;2.00;99.90
20422;DHT22;10370;53.102;18.034;2023-04-03T19:43:49;2.00;99.90
20422;DHT22;10370;53.102;18.034;2023-04-03T19:49:13;2.10;99.90
20422;DHT22;10370;53.102;18.034;2023-04-03T19:54:44;2.10;99.90
20422;DHT22;10370;53.102;18.034;2023-04-03T20:00:31;2.10;99.90
20422;DHT22;10370;53.102;18.034;2023-04-03T20:05:58;2.10;99.90
20422;DHT22;10370;53.102;18.034;2023-04-03T20:11:59;2.20;99.90
20422;DHT22;10370;53.102;18.034;2023-04-03T20:17:25;2.20;99.90
20422;DHT22;10370;53.102;18.034;2023-04-03T20:22:51;2.20;99.90
20422;DHT22;10370;53.102;18.034;2023-04-03T20:28:31;2.20;99.90
20422;DHT22;10370;53.102;18.034;2023-04-03T20:33:58;2.20;99.90
20422;DHT22;10370;53.102;18.034;2023-04-03T20:39:36;2.20;99.90
20422;DHT22;10370;53.102;18.034;2023-04-03T20:45:01;2.10;99.90
20422;DHT22;10370;53.102;18.034;2023-04-03T20:50:29;2.10;99.90
20422;DHT22;10370;53.102;18.034;2023-04-03T20:56:27;2.00;99.90
20422;DHT22;10370;53.102;18.034;2023-04-03T21:01:53;2.00;99.90
20422;DHT22;10370;53.102;18.034;2023-04-03T21:19:21;1.80;99.90
20422;DHT22;10370;53.102;18.034;2023-04-03T21:24:50;1.90;99.90
20422;DHT22;10370;53.102;18.034;2023-04-03T21:30:43;1.90;99.90
20422;DHT22;10370;53.102;18.034;2023-04-03T21:36:07;1.80;99.90
20422;DHT22;10370;53.102;18.034;2023-04-03T21:41:38;1.90;99.90
20422;DHT22;10370;53.102;18.034;2023-04-03T21:47:34;1.70;99.90
20422;DHT22;10370;53.102;18.034;2023-04-03T21:53:00;1.50;99.90
20422;DHT22;10370;53.102;18.034;2023-04-03T21:58:47;1.40;99.90
20422;DHT22;10370;53.102;18.034;2023-04-03T22:04:13;1.40;99.90
20422;DHT22;10370;53.102;18.034;2023-04-03T22:09:39;1.40;99.90
20422;DHT22;10370;53.102;18.034;2023-04-03T22:15:05;1.30;99.90
20422;DHT22;10370;53.102;18.034;2023-04-03T22:20:26;1.10;99.90
20422;DHT22;10370;53.102;18.034;2023-04-03T22:25:59;1.00;99.90
20422;DHT22;10370;53.102;18.034;2023-04-03T22:31:22;0.90;99.90
20422;DHT22;10370;53.102;18.034;2023-04-03T22:36:52;0.70;99.90
20422;DHT22;10370;53.102;18.034;2023-04-03T22:42:17;0.70;99.90
20422;DHT22;10370;53.102;18.034;2023-04-03T22:47:42;0.70;99.90
20422;DHT22;10370;53.102;18.034;2023-04-03T22:53:26;0.70;99.90
20422;DHT22;10370;53.102;18.034;2023-04-03T22:59:11;0.70;99.90
20422;DHT22;10370;53.102;18.034;2023-04-03T23:04:36;0.60;99.90
20422;DHT22;10370;53.102;18.034;2023-04-03T23:09:59;0.60;99.90
20422;DHT22;10370;53.102;18.034;2023-04-03T23:15:26;0.60;99.90
20422;DHT22;10370;53.102;18.034;2023-04-03T23:20:52;0.60;99.90
20422;DHT22;10370;53.102;18.034;2023-04-03T23:26:18;0.60;99.90
20422;DHT22;10370;53.102;18.034;2023-04-03T23:31:43;0.70;99.90
20422;DHT22;10370;53.102;18.034;2023-04-03T23:37:13;0.70;99.90
20422;DHT22;10370;53.102;18.034;2023-04-03T23:43:06;0.70;99.90
20422;DHT22;10370;53.102;18.034;2023-04-03T23:48:38;0.70;99.90
20422;DHT22;10370;53.102;18.034;2023-04-03T23:54:05;0.80;99.90
20422;DHT22;10370;53.102;18.034;2023-04-03T23:59:32;0.70;99.90
